sensor_id;sensor_type;location;lat;lon;timestamp;P1;durP1;ratioP1;P2;durP2;ratioP2
12814;SDS011;6472;52.328;13.070;2023-03-31T00:01:22;5.10;;;1.60;;
12814;SDS011;6472;52.328;13.070;2023-03-31T00:03:50;3.17;;;1.53;;
12814;SDS011;6472;52.328;13.070;2023-03-31T00:06:29;1.33;;;1.17;;
12814;SDS011;6472;52.328;13.070;2023-03-31T00:09:03;2.53;;;1.30;;
12814;SDS011;6472;52.328;13.070;2023-03-31T00:11:32;3.87;;;1.20;;
12814;SDS011;6472;52.328;13.070;2023-03-31T00:14:00;2.90;;;1.33;;
12814;SDS011;6472;52.328;13.070;2023-03-31T00:16:28;1.27;;;0.87;;
12814;SDS011;6472;52.328;13.070;2023-03-31T00:18:57;4.77;;;1.40;;
12814;SDS011;6472;52.328;13.070;2023-03-31T00:21:29;2.97;;;1.13;;
12814;SDS011;6472;52.328;13.070;2023-03-31T00:24:01;6.67;;;1.47;;
12814;SDS011;6472;52.328;13.070;2023-03-31T00:26:31;1.80;;;0.90;;
12814;SDS011;6472;52.328;13.070;2023-03-31T00:28:59;7.67;;;1.70;;
12814;SDS011;6472;52.328;13.070;2023-03-31T00:31:28;1.10;;;1.00;;
12814;SDS011;6472;52.328;13.070;2023-03-31T00:33:56;2.07;;;1.23;;
12814;SDS011;6472;52.328;13.070;2023-03-31T00:36:25;1.33;;;0.97;;
12814;SDS011;6472;52.328;13.070;2023-03-31T00:38:55;3.80;;;0.90;;
12814;SDS011;6472;52.328;13.070;2023-03-31T00:41:26;1.80;;;0.70;;
12814;SDS011;6472;52.328;13.070;2023-03-31T00:44:05;1.73;;;1.17;;
12814;SDS011;6472;52.328;13.070;2023-03-31T00:46:42;1.80;;;1.50;;
12814;SDS011;6472;52.328;13.070;2023-03-31T00:49:18;1.40;;;1.30;;
12814;SDS011;6472;52.328;13.070;2023-03-31T00:51:49;18.03;;;1.83;;
12814;SDS011;6472;52.328;13.070;2023-03-31T00:54:23;0.83;;;0.80;;
12814;SDS011;6472;52.328;13.070;2023-03-31T00:56:54;4.63;;;1.90;;
12814;SDS011;6472;52.328;13.070;2023-03-31T00:59:29;4.03;;;1.33;;
12814;SDS011;6472;52.328;13.070;2023-03-31T01:02:01;1.83;;;1.33;;
12814;SDS011;6472;52.328;13.070;2023-03-31T01:04:31;1.47;;;1.03;;
12814;SDS011;6472;52.328;13.070;2023-03-31T01:07:02;3.30;;;0.97;;
12814;SDS011;6472;52.328;13.070;2023-03-31T01:09:39;2.13;;;0.80;;
12814;SDS011;6472;52.328;13.070;2023-03-31T01:12:07;0.80;;;0.80;;
12814;SDS011;6472;52.328;13.070;2023-03-31T01:14:37;2.07;;;0.87;;
12814;SDS011;6472;52.328;13.070;2023-03-31T01:17:05;0.60;;;0.60;;
12814;SDS011;6472;52.328;13.070;2023-03-31T01:19:39;4.53;;;0.90;;
12814;SDS011;6472;52.328;13.070;2023-03-31T01:25:34;2.27;;;0.87;;
12814;SDS011;6472;52.328;13.070;2023-03-31T01:28:26;2.13;;;1.10;;
12814;SDS011;6472;52.328;13.070;2023-03-31T01:34:23;0.57;;;0.57;;
12814;SDS011;6472;52.328;13.070;2023-03-31T01:37:15;4.27;;;0.77;;
12814;SDS011;6472;52.328;13.070;2023-03-31T01:40:08;0.83;;;0.83;;
12814;SDS011;6472;52.328;13.070;2023-03-31T01:42:44;3.63;;;1.00;;
12814;SDS011;6472;52.328;13.070;2023-03-31T01:45:22;5.13;;;1.07;;
12814;SDS011;6472;52.328;13.070;2023-03-31T01:48:00;0.60;;;0.60;;
12814;SDS011;6472;52.328;13.070;2023-03-31T01:50:34;0.53;;;0.53;;
12814;SDS011;6472;52.328;13.070;2023-03-31T01:53:09;3.10;;;0.97;;
12814;SDS011;6472;52.328;13.070;2023-03-31T01:55:45;1.00;;;0.70;;
12814;SDS011;6472;52.328;13.070;2023-03-31T01:58:18;3.50;;;0.90;;
12814;SDS011;6472;52.328;13.070;2023-03-31T02:00:54;1.33;;;0.70;;
12814;SDS011;6472;52.328;13.070;2023-03-31T02:03:30;4.10;;;0.97;;
12814;SDS011;6472;52.328;13.070;2023-03-31T02:06:04;3.40;;;0.90;;
12814;SDS011;6472;52.328;13.070;2023-03-31T02:08:37;0.83;;;0.83;;
12814;SDS011;6472;52.328;13.070;2023-03-31T02:11:10;1.47;;;0.63;;
12814;SDS011;6472;52.328;13.070;2023-03-31T02:13:39;6.37;;;1.00;;
12814;SDS011;6472;52.328;13.070;2023-03-31T02:16:15;0.97;;;0.70;;
12814;SDS011;6472;52.328;13.070;2023-03-31T02:18:50;0.70;;;0.60;;
12814;SDS011;6472;52.328;13.070;2023-03-31T02:21:20;3.07;;;0.73;;
12814;SDS011;6472;52.328;13.070;2023-03-31T02:23:49;0.90;;;0.73;;
12814;SDS011;6472;52.328;13.070;2023-03-31T02:26:20;1.50;;;0.70;;
12814;SDS011;6472;52.328;13.070;2023-03-31T02:28:52;1.27;;;0.90;;
12814;SDS011;6472;52.328;13.070;2023-03-31T02:31:23;3.43;;;0.70;;
12814;SDS011;6472;52.328;13.070;2023-03-31T02:33:55;0.93;;;0.60;;
12814;SDS011;6472;52.328;13.070;2023-03-31T02:36:23;0.93;;;0.80;;
12814;SDS011;6472;52.328;13.070;2023-03-31T02:38:53;1.07;;;0.70;;
12814;SDS011;6472;52.328;13.070;2023-03-31T02:41:28;1.80;;;0.80;;
12814;SDS011;6472;52.328;13.070;2023-03-31T02:43:58;1.20;;;0.50;;
12814;SDS011;6472;52.328;13.070;2023-03-31T02:46:27;0.97;;;0.60;;
12814;SDS011;6472;52.328;13.070;2023-03-31T02:48:56;0.77;;;0.63;;
12814;SDS011;6472;52.328;13.070;2023-03-31T02:54:43;1.80;;;0.60;;
12814;SDS011;6472;52.328;13.070;2023-03-31T02:57:46;2.90;;;0.50;;
12814;SDS011;6472;52.328;13.070;2023-03-31T03:00:33;3.63;;;0.80;;
12814;SDS011;6472;52.328;13.070;2023-03-31T03:03:13;2.63;;;0.50;;
12814;SDS011;6472;52.328;13.070;2023-03-31T03:05:58;1.73;;;0.90;;
12814;SDS011;6472;52.328;13.070;2023-03-31T03:08:35;0.80;;;0.63;;
12814;SDS011;6472;52.328;13.070;2023-03-31T03:11:16;3.93;;;1.33;;
12814;SDS011;6472;52.328;13.070;2023-03-31T03:13:51;0.77;;;0.70;;
12814;SDS011;6472;52.328;13.070;2023-03-31T03:16:27;3.70;;;0.97;;
12814;SDS011;6472;52.328;13.070;2023-03-31T03:19:02;0.57;;;0.57;;
12814;SDS011;6472;52.328;13.070;2023-03-31T03:21:35;1.87;;;0.83;;
12814;SDS011;6472;52.328;13.070;2023-03-31T03:24:07;0.73;;;0.73;;
12814;SDS011;6472;52.328;13.070;2023-03-31T03:26:36;3.30;;;1.30;;
12814;SDS011;6472;52.328;13.070;2023-03-31T03:29:08;0.60;;;0.60;;
12814;SDS011;6472;52.328;13.070;2023-03-31T03:31:42;2.20;;;0.80;;
12814;SDS011;6472;52.328;13.070;2023-03-31T03:34:15;1.57;;;0.77;;
12814;SDS011;6472;52.328;13.070;2023-03-31T03:36:45;0.70;;;0.70;;
12814;SDS011;6472;52.328;13.070;2023-03-31T03:39:13;1.73;;;0.90;;
12814;SDS011;6472;52.328;13.070;2023-03-31T03:41:42;1.30;;;0.90;;
12814;SDS011;6472;52.328;13.070;2023-03-31T03:44:25;2.63;;;0.90;;
12814;SDS011;6472;52.328;13.070;2023-03-31T03:46:56;1.07;;;0.63;;
12814;SDS011;6472;52.328;13.070;2023-03-31T03:49:33;0.70;;;0.70;;
12814;SDS011;6472;52.328;13.070;2023-03-31T03:52:05;0.80;;;0.77;;
12814;SDS011;6472;52.328;13.070;2023-03-31T03:54:52;0.60;;;0.60;;
12814;SDS011;6472;52.328;13.070;2023-03-31T03:57:57;2.73;;;0.40;;
12814;SDS011;6472;52.328;13.070;2023-03-31T04:00:52;2.47;;;0.80;;
12814;SDS011;6472;52.328;13.070;2023-03-31T04:03:37;1.20;;;0.63;;
12814;SDS011;6472;52.328;13.070;2023-03-31T04:06:26;1.53;;;0.90;;
12814;SDS011;6472;52.328;13.070;2023-03-31T04:09:21;1.67;;;0.70;;
12814;SDS011;6472;52.328;13.070;2023-03-31T04:12:05;1.43;;;0.80;;
12814;SDS011;6472;52.328;13.070;2023-03-31T04:14:38;4.23;;;0.70;;
12814;SDS011;6472;52.328;13.070;2023-03-31T04:17:08;5.93;;;0.73;;
12814;SDS011;6472;52.328;13.070;2023-03-31T04:19:43;0.67;;;0.67;;
12814;SDS011;6472;52.328;13.070;2023-03-31T04:22:23;0.60;;;0.60;;
12814;SDS011;6472;52.328;13.070;2023-03-31T04:25:17;1.23;;;0.60;;
12814;SDS011;6472;52.328;13.070;2023-03-31T04:27:56;1.00;;;0.73;;
12814;SDS011;6472;52.328;13.070;2023-03-31T04:30:26;1.63;;;0.70;;
12814;SDS011;6472;52.328;13.070;2023-03-31T04:36:49;2.33;;;0.93;;
12814;SDS011;6472;52.328;13.070;2023-03-31T04:39:50;0.83;;;0.53;;
12814;SDS011;6472;52.328;13.070;2023-03-31T04:42:23;1.00;;;0.80;;
12814;SDS011;6472;52.328;13.070;2023-03-31T04:45:14;0.80;;;0.80;;
12814;SDS011;6472;52.328;13.070;2023-03-31T04:48:00;0.90;;;0.90;;
12814;SDS011;6472;52.328;13.070;2023-03-31T04:50:55;0.50;;;0.50;;
12814;SDS011;6472;52.328;13.070;2023-03-31T04:54:09;1.07;;;0.70;;
12814;SDS011;6472;52.328;13.070;2023-03-31T04:57:30;0.97;;;0.53;;
12814;SDS011;6472;52.328;13.070;2023-03-31T05:00:44;1.00;;;0.80;;
12814;SDS011;6472;52.328;13.070;2023-03-31T05:04:18;1.70;;;1.23;;
12814;SDS011;6472;52.328;13.070;2023-03-31T05:06:54;0.70;;;0.70;;
12814;SDS011;6472;52.328;13.070;2023-03-31T05:09:28;0.70;;;0.70;;
12814;SDS011;6472;52.328;13.070;2023-03-31T05:12:27;1.63;;;1.20;;
12814;SDS011;6472;52.328;13.070;2023-03-31T05:15:36;1.37;;;1.27;;
12814;SDS011;6472;52.328;13.070;2023-03-31T05:18:40;3.77;;;0.90;;
12814;SDS011;6472;52.328;13.070;2023-03-31T05:22:03;0.60;;;0.60;;
12814;SDS011;6472;52.328;13.070;2023-03-31T05:29:00;1.17;;;0.97;;
12814;SDS011;6472;52.328;13.070;2023-03-31T05:31:39;0.90;;;0.90;;
12814;SDS011;6472;52.328;13.070;2023-03-31T05:34:26;1.13;;;0.70;;
12814;SDS011;6472;52.328;13.070;2023-03-31T05:37:22;0.70;;;0.70;;
12814;SDS011;6472;52.328;13.070;2023-03-31T05:40:19;2.30;;;0.90;;
12814;SDS011;6472;52.328;13.070;2023-03-31T05:43:06;1.20;;;1.10;;
12814;SDS011;6472;52.328;13.070;2023-03-31T05:46:08;2.60;;;1.13;;
12814;SDS011;6472;52.328;13.070;2023-03-31T05:50:07;2.43;;;0.87;;
12814;SDS011;6472;52.328;13.070;2023-03-31T05:52:41;1.27;;;1.00;;
12814;SDS011;6472;52.328;13.070;2023-03-31T05:55:22;1.47;;;0.90;;
12814;SDS011;6472;52.328;13.070;2023-03-31T05:58:33;3.10;;;1.40;;
12814;SDS011;6472;52.328;13.070;2023-03-31T06:05:33;1.73;;;1.07;;
12814;SDS011;6472;52.328;13.070;2023-03-31T06:16:15;4.70;;;1.40;;
12814;SDS011;6472;52.328;13.070;2023-03-31T06:18:44;2.10;;;1.20;;
12814;SDS011;6472;52.328;13.070;2023-03-31T06:21:13;5.73;;;0.90;;
12814;SDS011;6472;52.328;13.070;2023-03-31T06:23:42;2.03;;;1.50;;
12814;SDS011;6472;52.328;13.070;2023-03-31T06:26:11;0.60;;;0.60;;
12814;SDS011;6472;52.328;13.070;2023-03-31T06:28:40;3.60;;;1.50;;
12814;SDS011;6472;52.328;13.070;2023-03-31T06:31:09;3.13;;;1.13;;
12814;SDS011;6472;52.328;13.070;2023-03-31T06:33:40;1.40;;;1.20;;
12814;SDS011;6472;52.328;13.070;2023-03-31T06:36:09;1.40;;;1.30;;
12814;SDS011;6472;52.328;13.070;2023-03-31T06:38:40;4.73;;;1.83;;
12814;SDS011;6472;52.328;13.070;2023-03-31T06:41:10;4.63;;;1.53;;
12814;SDS011;6472;52.328;13.070;2023-03-31T06:43:39;2.77;;;1.27;;
12814;SDS011;6472;52.328;13.070;2023-03-31T06:46:08;1.60;;;1.50;;
12814;SDS011;6472;52.328;13.070;2023-03-31T06:48:37;1.10;;;1.10;;
12814;SDS011;6472;52.328;13.070;2023-03-31T06:51:08;4.63;;;1.30;;
12814;SDS011;6472;52.328;13.070;2023-03-31T06:53:36;2.80;;;1.57;;
12814;SDS011;6472;52.328;13.070;2023-03-31T06:56:04;8.87;;;1.63;;
12814;SDS011;6472;52.328;13.070;2023-03-31T06:58:33;1.63;;;1.10;;
12814;SDS011;6472;52.328;13.070;2023-03-31T07:01:02;3.20;;;1.27;;
12814;SDS011;6472;52.328;13.070;2023-03-31T07:03:32;1.67;;;1.57;;
12814;SDS011;6472;52.328;13.070;2023-03-31T07:06:01;3.37;;;1.40;;
12814;SDS011;6472;52.328;13.070;2023-03-31T07:08:30;3.30;;;1.40;;
12814;SDS011;6472;52.328;13.070;2023-03-31T07:10:59;5.20;;;1.90;;
12814;SDS011;6472;52.328;13.070;2023-03-31T07:13:28;2.77;;;1.97;;
12814;SDS011;6472;52.328;13.070;2023-03-31T07:15:56;4.00;;;1.80;;
12814;SDS011;6472;52.328;13.070;2023-03-31T07:18:24;8.00;;;1.77;;
12814;SDS011;6472;52.328;13.070;2023-03-31T07:21:00;5.40;;;1.67;;
12814;SDS011;6472;52.328;13.070;2023-03-31T07:23:32;2.57;;;1.80;;
12814;SDS011;6472;52.328;13.070;2023-03-31T07:26:01;4.87;;;1.73;;
12814;SDS011;6472;52.328;13.070;2023-03-31T07:28:28;1.77;;;1.60;;
12814;SDS011;6472;52.328;13.070;2023-03-31T07:30:57;1.57;;;1.47;;
12814;SDS011;6472;52.328;13.070;2023-03-31T07:33:25;3.77;;;1.20;;
12814;SDS011;6472;52.328;13.070;2023-03-31T07:35:53;8.33;;;2.30;;
12814;SDS011;6472;52.328;13.070;2023-03-31T07:38:38;12.30;;;4.33;;
12814;SDS011;6472;52.328;13.070;2023-03-31T07:41:09;6.67;;;2.93;;
12814;SDS011;6472;52.328;13.070;2023-03-31T07:43:38;6.87;;;2.80;;
12814;SDS011;6472;52.328;13.070;2023-03-31T07:46:12;5.10;;;2.60;;
12814;SDS011;6472;52.328;13.070;2023-03-31T07:48:41;2.23;;;1.80;;
12814;SDS011;6472;52.328;13.070;2023-03-31T07:51:11;2.57;;;1.10;;
12814;SDS011;6472;52.328;13.070;2023-03-31T07:53:41;1.53;;;1.10;;
12814;SDS011;6472;52.328;13.070;2023-03-31T07:56:10;2.83;;;1.30;;
12814;SDS011;6472;52.328;13.070;2023-03-31T07:58:38;3.30;;;1.13;;
12814;SDS011;6472;52.328;13.070;2023-03-31T08:01:06;3.23;;;1.00;;
12814;SDS011;6472;52.328;13.070;2023-03-31T08:03:34;6.40;;;1.00;;
12814;SDS011;6472;52.328;13.070;2023-03-31T08:06:03;0.83;;;0.83;;
12814;SDS011;6472;52.328;13.070;2023-03-31T08:08:31;2.83;;;0.77;;
12814;SDS011;6472;52.328;13.070;2023-03-31T08:11:01;1.30;;;1.20;;
12814;SDS011;6472;52.328;13.070;2023-03-31T08:13:29;2.80;;;1.23;;
12814;SDS011;6472;52.328;13.070;2023-03-31T08:15:57;2.70;;;1.03;;
12814;SDS011;6472;52.328;13.070;2023-03-31T08:18:25;1.77;;;0.60;;
12814;SDS011;6472;52.328;13.070;2023-03-31T08:20:54;7.10;;;1.07;;
12814;SDS011;6472;52.328;13.070;2023-03-31T08:23:22;1.23;;;0.70;;
12814;SDS011;6472;52.328;13.070;2023-03-31T08:25:50;2.33;;;1.17;;
12814;SDS011;6472;52.328;13.070;2023-03-31T08:28:19;3.85;;;1.10;;
12814;SDS011;6472;52.328;13.070;2023-03-31T08:30:48;3.30;;;1.27;;
12814;SDS011;6472;52.328;13.070;2023-03-31T08:33:17;4.78;;;1.17;;
12814;SDS011;6472;52.328;13.070;2023-03-31T08:35:45;2.80;;;1.00;;
12814;SDS011;6472;52.328;13.070;2023-03-31T08:38:15;4.50;;;1.10;;
12814;SDS011;6472;52.328;13.070;2023-03-31T08:40:43;0.95;;;0.95;;
12814;SDS011;6472;52.328;13.070;2023-03-31T08:43:12;5.40;;;1.17;;
12814;SDS011;6472;52.328;13.070;2023-03-31T08:45:46;1.33;;;0.80;;
12814;SDS011;6472;52.328;13.070;2023-03-31T08:48:18;5.15;;;0.95;;
12814;SDS011;6472;52.328;13.070;2023-03-31T08:50:52;13.05;;;1.30;;
12814;SDS011;6472;52.328;13.070;2023-03-31T08:53:24;2.42;;;1.00;;
12814;SDS011;6472;52.328;13.070;2023-03-31T08:55:55;6.07;;;1.15;;
12814;SDS011;6472;52.328;13.070;2023-03-31T08:58:30;1.15;;;0.85;;
12814;SDS011;6472;52.328;13.070;2023-03-31T09:01:07;1.17;;;0.77;;
12814;SDS011;6472;52.328;13.070;2023-03-31T09:03:47;1.95;;;0.73;;
12814;SDS011;6472;52.328;13.070;2023-03-31T09:06:38;2.67;;;1.10;;
12814;SDS011;6472;52.328;13.070;2023-03-31T09:09:10;1.00;;;0.75;;
12814;SDS011;6472;52.328;13.070;2023-03-31T09:11:49;0.77;;;0.70;;
12814;SDS011;6472;52.328;13.070;2023-03-31T09:14:23;3.08;;;1.00;;
12814;SDS011;6472;52.328;13.070;2023-03-31T09:17:00;1.52;;;0.52;;
12814;SDS011;6472;52.328;13.070;2023-03-31T09:19:41;3.30;;;0.98;;
12814;SDS011;6472;52.328;13.070;2023-03-31T09:22:12;1.35;;;0.65;;
12814;SDS011;6472;52.328;13.070;2023-03-31T09:24:46;0.55;;;0.55;;
12814;SDS011;6472;52.328;13.070;2023-03-31T09:27:19;0.60;;;0.57;;
12814;SDS011;6472;52.328;13.070;2023-03-31T09:29:48;2.33;;;0.77;;
12814;SDS011;6472;52.328;13.070;2023-03-31T09:32:21;2.22;;;1.10;;
12814;SDS011;6472;52.328;13.070;2023-03-31T09:34:52;1.35;;;0.85;;
12814;SDS011;6472;52.328;13.070;2023-03-31T09:37:27;2.28;;;0.70;;
12814;SDS011;6472;52.328;13.070;2023-03-31T09:39:58;1.25;;;1.08;;
12814;SDS011;6472;52.328;13.070;2023-03-31T09:42:32;3.55;;;1.25;;
12814;SDS011;6472;52.328;13.070;2023-03-31T09:45:01;2.20;;;0.90;;
12814;SDS011;6472;52.328;13.070;2023-03-31T09:47:32;1.30;;;0.88;;
12814;SDS011;6472;52.328;13.070;2023-03-31T09:50:05;0.80;;;0.80;;
12814;SDS011;6472;52.328;13.070;2023-03-31T09:52:36;1.67;;;0.80;;
12814;SDS011;6472;52.328;13.070;2023-03-31T09:55:13;0.73;;;0.63;;
12814;SDS011;6472;52.328;13.070;2023-03-31T09:58:04;2.55;;;1.08;;
12814;SDS011;6472;52.328;13.070;2023-03-31T10:00:33;1.00;;;0.95;;
12814;SDS011;6472;52.328;13.070;2023-03-31T10:03:04;1.20;;;0.90;;
12814;SDS011;6472;52.328;13.070;2023-03-31T10:05:34;0.93;;;0.73;;
12814;SDS011;6472;52.328;13.070;2023-03-31T10:08:13;2.55;;;0.68;;
12814;SDS011;6472;52.328;13.070;2023-03-31T10:10:49;0.60;;;0.60;;
12814;SDS011;6472;52.328;13.070;2023-03-31T10:13:19;4.35;;;0.75;;
12814;SDS011;6472;52.328;13.070;2023-03-31T10:15:53;0.52;;;0.52;;
12814;SDS011;6472;52.328;13.070;2023-03-31T10:18:32;0.50;;;0.50;;
12814;SDS011;6472;52.328;13.070;2023-03-31T10:21:02;0.70;;;0.70;;
12814;SDS011;6472;52.328;13.070;2023-03-31T10:23:33;2.07;;;0.83;;
12814;SDS011;6472;52.328;13.070;2023-03-31T10:26:02;3.25;;;0.80;;
12814;SDS011;6472;52.328;13.070;2023-03-31T10:28:32;1.63;;;0.63;;
12814;SDS011;6472;52.328;13.070;2023-03-31T10:31:02;2.92;;;1.00;;
12814;SDS011;6472;52.328;13.070;2023-03-31T10:33:33;1.53;;;0.60;;
12814;SDS011;6472;52.328;13.070;2023-03-31T10:36:13;0.50;;;0.50;;
12814;SDS011;6472;52.328;13.070;2023-03-31T10:38:45;1.80;;;0.75;;
12814;SDS011;6472;52.328;13.070;2023-03-31T10:41:16;2.67;;;1.00;;
12814;SDS011;6472;52.328;13.070;2023-03-31T10:43:47;1.17;;;0.70;;
12814;SDS011;6472;52.328;13.070;2023-03-31T10:46:17;1.83;;;0.95;;
12814;SDS011;6472;52.328;13.070;2023-03-31T10:48:47;3.97;;;1.10;;
12814;SDS011;6472;52.328;13.070;2023-03-31T10:51:17;5.10;;;1.25;;
12814;SDS011;6472;52.328;13.070;2023-03-31T10:53:47;3.17;;;0.82;;
12814;SDS011;6472;52.328;13.070;2023-03-31T10:56:20;1.08;;;0.93;;
12814;SDS011;6472;52.328;13.070;2023-03-31T10:59:01;1.60;;;0.98;;
12814;SDS011;6472;52.328;13.070;2023-03-31T11:01:42;2.50;;;1.15;;
12814;SDS011;6472;52.328;13.070;2023-03-31T11:07:26;2.75;;;1.38;;
12814;SDS011;6472;52.328;13.070;2023-03-31T11:10:26;1.25;;;1.00;;
12814;SDS011;6472;52.328;13.070;2023-03-31T11:13:04;1.05;;;1.00;;
12814;SDS011;6472;52.328;13.070;2023-03-31T11:15:39;1.30;;;1.10;;
12814;SDS011;6472;52.328;13.070;2023-03-31T11:18:16;1.83;;;1.07;;
12814;SDS011;6472;52.328;13.070;2023-03-31T11:21:00;2.13;;;1.87;;
12814;SDS011;6472;52.328;13.070;2023-03-31T11:23:39;3.57;;;1.80;;
12814;SDS011;6472;52.328;13.070;2023-03-31T11:26:09;1.37;;;1.27;;
12814;SDS011;6472;52.328;13.070;2023-03-31T11:28:56;3.60;;;1.70;;
12814;SDS011;6472;52.328;13.070;2023-03-31T11:31:35;3.33;;;1.25;;
12814;SDS011;6472;52.328;13.070;2023-03-31T11:40:23;1.83;;;1.53;;
12814;SDS011;6472;52.328;13.070;2023-03-31T11:43:01;3.20;;;1.07;;
12814;SDS011;6472;52.328;13.070;2023-03-31T11:45:33;3.03;;;0.97;;
12814;SDS011;6472;52.328;13.070;2023-03-31T11:48:08;2.85;;;1.42;;
12814;SDS011;6472;52.328;13.070;2023-03-31T11:50:43;2.92;;;1.50;;
12814;SDS011;6472;52.328;13.070;2023-03-31T11:53:15;4.30;;;1.45;;
12814;SDS011;6472;52.328;13.070;2023-03-31T11:55:47;3.30;;;2.05;;
12814;SDS011;6472;52.328;13.070;2023-03-31T11:58:19;2.03;;;1.00;;
12814;SDS011;6472;52.328;13.070;2023-03-31T12:00:50;1.53;;;1.20;;
12814;SDS011;6472;52.328;13.070;2023-03-31T12:03:22;4.47;;;1.30;;
12814;SDS011;6472;52.328;13.070;2023-03-31T12:06:00;1.80;;;1.23;;
12814;SDS011;6472;52.328;13.070;2023-03-31T12:08:36;1.17;;;1.17;;
12814;SDS011;6472;52.328;13.070;2023-03-31T12:11:08;1.30;;;1.20;;
12814;SDS011;6472;52.328;13.070;2023-03-31T12:13:43;3.03;;;1.40;;
12814;SDS011;6472;52.328;13.070;2023-03-31T12:16:17;1.57;;;1.03;;
12814;SDS011;6472;52.328;13.070;2023-03-31T12:18:55;1.43;;;1.33;;
12814;SDS011;6472;52.328;13.070;2023-03-31T12:21:28;1.93;;;1.13;;
12814;SDS011;6472;52.328;13.070;2023-03-31T12:24:00;1.80;;;1.23;;
12814;SDS011;6472;52.328;13.070;2023-03-31T12:26:34;1.47;;;1.07;;
12814;SDS011;6472;52.328;13.070;2023-03-31T12:29:22;1.83;;;1.73;;
12814;SDS011;6472;52.328;13.070;2023-03-31T12:31:56;1.40;;;1.37;;
12814;SDS011;6472;52.328;13.070;2023-03-31T12:34:29;2.73;;;1.93;;
12814;SDS011;6472;52.328;13.070;2023-03-31T12:37:03;3.27;;;1.80;;
12814;SDS011;6472;52.328;13.070;2023-03-31T12:39:47;2.90;;;2.10;;
12814;SDS011;6472;52.328;13.070;2023-03-31T12:42:36;3.47;;;1.93;;
12814;SDS011;6472;52.328;13.070;2023-03-31T12:45:16;4.53;;;2.00;;
12814;SDS011;6472;52.328;13.070;2023-03-31T12:48:00;1.93;;;1.50;;
12814;SDS011;6472;52.328;13.070;2023-03-31T12:50:40;1.93;;;1.67;;
12814;SDS011;6472;52.328;13.070;2023-03-31T12:53:20;2.63;;;1.60;;
12814;SDS011;6472;52.328;13.070;2023-03-31T12:55:57;2.93;;;1.80;;
12814;SDS011;6472;52.328;13.070;2023-03-31T12:58:41;1.43;;;1.30;;
12814;SDS011;6472;52.328;13.070;2023-03-31T13:01:11;1.33;;;1.23;;
12814;SDS011;6472;52.328;13.070;2023-03-31T13:03:48;2.00;;;1.30;;
12814;SDS011;6472;52.328;13.070;2023-03-31T13:06:47;3.57;;;1.43;;
12814;SDS011;6472;52.328;13.070;2023-03-31T13:12:11;2.90;;;1.10;;
12814;SDS011;6472;52.328;13.070;2023-03-31T13:14:41;1.47;;;1.33;;
12814;SDS011;6472;52.328;13.070;2023-03-31T13:17:12;4.00;;;1.50;;
12814;SDS011;6472;52.328;13.070;2023-03-31T13:19:49;1.50;;;1.40;;
12814;SDS011;6472;52.328;13.070;2023-03-31T13:22:28;1.50;;;1.40;;
12814;SDS011;6472;52.328;13.070;2023-03-31T13:28:23;1.37;;;1.30;;
12814;SDS011;6472;52.328;13.070;2023-03-31T13:30:55;1.10;;;1.00;;
12814;SDS011;6472;52.328;13.070;2023-03-31T13:33:31;1.97;;;1.30;;
12814;SDS011;6472;52.328;13.070;2023-03-31T13:42:16;1.20;;;1.10;;
12814;SDS011;6472;52.328;13.070;2023-03-31T13:44:58;0.60;;;0.60;;
12814;SDS011;6472;52.328;13.070;2023-03-31T13:50:35;1.03;;;0.90;;
12814;SDS011;6472;52.328;13.070;2023-03-31T13:53:16;2.90;;;1.00;;
12814;SDS011;6472;52.328;13.070;2023-03-31T13:55:57;3.10;;;0.60;;
12814;SDS011;6472;52.328;13.070;2023-03-31T14:01:47;0.60;;;0.60;;
12814;SDS011;6472;52.328;13.070;2023-03-31T14:04:37;2.20;;;0.77;;
12814;SDS011;6472;52.328;13.070;2023-03-31T14:07:17;2.40;;;0.77;;
12814;SDS011;6472;52.328;13.070;2023-03-31T14:09:48;0.93;;;0.87;;
12814;SDS011;6472;52.328;13.070;2023-03-31T14:12:21;0.93;;;0.83;;
12814;SDS011;6472;52.328;13.070;2023-03-31T14:14:57;0.60;;;0.50;;
12814;SDS011;6472;52.328;13.070;2023-03-31T14:17:28;3.40;;;0.93;;
12814;SDS011;6472;52.328;13.070;2023-03-31T14:20:03;1.43;;;0.80;;
12814;SDS011;6472;52.328;13.070;2023-03-31T14:22:59;3.13;;;1.03;;
12814;SDS011;6472;52.328;13.070;2023-03-31T14:25:40;3.40;;;0.90;;
12814;SDS011;6472;52.328;13.070;2023-03-31T14:28:21;0.83;;;0.80;;
12814;SDS011;6472;52.328;13.070;2023-03-31T14:31:06;0.90;;;0.67;;
12814;SDS011;6472;52.328;13.070;2023-03-31T14:33:49;4.50;;;1.00;;
12814;SDS011;6472;52.328;13.070;2023-03-31T14:36:34;7.20;;;0.83;;
12814;SDS011;6472;52.328;13.070;2023-03-31T14:39:08;2.50;;;1.17;;
12814;SDS011;6472;52.328;13.070;2023-03-31T14:41:38;0.60;;;0.60;;
12814;SDS011;6472;52.328;13.070;2023-03-31T14:44:10;0.60;;;0.60;;
12814;SDS011;6472;52.328;13.070;2023-03-31T14:46:41;0.93;;;0.70;;
12814;SDS011;6472;52.328;13.070;2023-03-31T14:49:17;0.77;;;0.73;;
12814;SDS011;6472;52.328;13.070;2023-03-31T14:51:47;0.83;;;0.77;;
12814;SDS011;6472;52.328;13.070;2023-03-31T14:54:18;0.63;;;0.63;;
12814;SDS011;6472;52.328;13.070;2023-03-31T14:56:48;1.80;;;1.10;;
12814;SDS011;6472;52.328;13.070;2023-03-31T14:59:20;0.83;;;0.80;;
12814;SDS011;6472;52.328;13.070;2023-03-31T15:01:52;0.80;;;0.80;;
12814;SDS011;6472;52.328;13.070;2023-03-31T15:04:25;4.03;;;0.80;;
12814;SDS011;6472;52.328;13.070;2023-03-31T15:07:07;0.80;;;0.77;;
12814;SDS011;6472;52.328;13.070;2023-03-31T15:09:36;0.83;;;0.80;;
12814;SDS011;6472;52.328;13.070;2023-03-31T15:12:06;0.80;;;0.80;;
12814;SDS011;6472;52.328;13.070;2023-03-31T15:14:39;2.43;;;1.00;;
12814;SDS011;6472;52.328;13.070;2023-03-31T15:17:16;1.53;;;0.63;;
12814;SDS011;6472;52.328;13.070;2023-03-31T15:19:50;0.60;;;0.60;;
12814;SDS011;6472;52.328;13.070;2023-03-31T15:22:21;1.10;;;0.80;;
12814;SDS011;6472;52.328;13.070;2023-03-31T15:24:51;1.10;;;0.67;;
12814;SDS011;6472;52.328;13.070;2023-03-31T15:27:22;0.90;;;0.73;;
12814;SDS011;6472;52.328;13.070;2023-03-31T15:30:03;0.60;;;0.60;;
12814;SDS011;6472;52.328;13.070;2023-03-31T15:32:34;0.80;;;0.80;;
12814;SDS011;6472;52.328;13.070;2023-03-31T15:35:06;3.57;;;0.80;;
12814;SDS011;6472;52.328;13.070;2023-03-31T15:37:48;2.37;;;0.60;;
12814;SDS011;6472;52.328;13.070;2023-03-31T15:40:20;1.77;;;0.60;;
12814;SDS011;6472;52.328;13.070;2023-03-31T15:42:52;0.50;;;0.50;;
12814;SDS011;6472;52.328;13.070;2023-03-31T15:45:48;0.90;;;0.90;;
12814;SDS011;6472;52.328;13.070;2023-03-31T15:48:20;0.37;;;0.37;;
12814;SDS011;6472;52.328;13.070;2023-03-31T15:50:51;2.53;;;0.60;;
12814;SDS011;6472;52.328;13.070;2023-03-31T15:53:26;1.23;;;0.90;;
12814;SDS011;6472;52.328;13.070;2023-03-31T15:55:57;1.03;;;0.60;;
12814;SDS011;6472;52.328;13.070;2023-03-31T15:58:46;0.93;;;0.50;;
12814;SDS011;6472;52.328;13.070;2023-03-31T16:01:22;2.27;;;1.03;;
12814;SDS011;6472;52.328;13.070;2023-03-31T16:03:54;1.10;;;0.80;;
12814;SDS011;6472;52.328;13.070;2023-03-31T16:06:28;1.20;;;0.57;;
12814;SDS011;6472;52.328;13.070;2023-03-31T16:09:04;0.57;;;0.57;;
12814;SDS011;6472;52.328;13.070;2023-03-31T16:11:36;0.67;;;0.67;;
12814;SDS011;6472;52.328;13.070;2023-03-31T16:14:09;0.93;;;0.67;;
12814;SDS011;6472;52.328;13.070;2023-03-31T16:16:46;0.70;;;0.70;;
12814;SDS011;6472;52.328;13.070;2023-03-31T16:19:17;0.70;;;0.70;;
12814;SDS011;6472;52.328;13.070;2023-03-31T16:21:49;0.67;;;0.67;;
12814;SDS011;6472;52.328;13.070;2023-03-31T16:24:20;4.13;;;0.90;;
12814;SDS011;6472;52.328;13.070;2023-03-31T16:26:57;0.50;;;0.50;;
12814;SDS011;6472;52.328;13.070;2023-03-31T16:29:31;0.80;;;0.60;;
12814;SDS011;6472;52.328;13.070;2023-03-31T16:32:07;1.70;;;0.63;;
12814;SDS011;6472;52.328;13.070;2023-03-31T16:34:53;0.50;;;0.50;;
12814;SDS011;6472;52.328;13.070;2023-03-31T16:37:24;0.50;;;0.50;;
12814;SDS011;6472;52.328;13.070;2023-03-31T16:39:53;1.50;;;0.70;;